Time;durP1;ratioP1;P1;durP2;ratioP2;P2;SDS_P1;SDS_P2;PMS_P1;PMS_P2;Temp;Humidity;BMP_temperature;BMP_pressure;BME280_temperature;BME280_humidity;BME280_pressure;Samples;Min_cycle;Max_cycle;Signal;HPM_P1;HPM_P2
2023/03/11 00:04:06;;;;;;;1.40;1.20;;;;;;;9.83;57.86;97660.50;7710054;32;37923;-85
2023/03/11 00:08:24;;;;;;;2.90;1.35;;;;;;;10.28;57.85;97659.41;7710410;32;37314;-85
2023/03/11 00:12:40;;;;;;;1.60;1.40;;;;;;;9.87;58.55;97663.41;7710798;32;39350;-85
2023/03/11 00:16:57;;;;;;;1.37;1.15;;;;;;;10.36;57.57;97660.53;7710766;32;39985;-85
2023/03/11 00:21:19;;;;;;;1.15;1.15;;;;;;;10.20;57.80;97652.03;7710955;32;37967;-85
2023/03/11 00:25:37;;;;;;;1.80;1.40;;;;;;;10.44;57.27;97659.72;7708853;32;36704;-84
2023/03/11 00:29:54;;;;;;;1.10;1.10;;;;;;;10.25;58.21;97660.03;7710193;32;39418;-86
2023/03/11 00:34:10;;;;;;;1.33;1.10;;;;;;;10.34;56.39;97661.63;7709725;32;40076;-85
2023/03/11 00:38:26;;;;;;;3.80;1.27;;;;;;;10.44;56.77;97657.78;7710724;32;37865;-85
2023/03/11 00:42:43;;;;;;;2.15;1.37;;;;;;;10.31;56.72;97647.84;7710776;32;36850;-84
2023/03/11 00:46:59;;;;;;;3.55;1.30;;;;;;;10.31;56.60;97656.00;7710979;32;38571;-84
2023/03/11 00:51:16;;;;;;;1.25;1.12;;;;;;;10.29;56.46;97656.31;7709344;32;39980;-85
2023/03/11 00:55:33;;;;;;;1.33;1.33;;;;;;;9.87;56.37;97655.22;7710423;32;37888;-85
2023/03/11 00:59:50;;;;;;;2.58;1.30;;;;;;;10.32;55.41;97653.00;7708887;32;37086;-84
2023/03/11 01:04:06;;;;;;;1.20;1.20;;;;;;;9.96;56.65;97669.63;7710303;32;39309;-85
2023/03/11 01:08:23;;;;;;;1.20;1.20;;;;;;;10.25;55.19;97668.19;7710487;32;41653;-85
2023/03/11 01:12:39;;;;;;;1.10;1.10;;;;;;;9.91;54.10;97675.22;7713080;32;38499;-84
2023/03/11 01:16:55;;;;;;;3.10;1.25;;;;;;;10.09;52.60;97673.31;7713341;32;36673;-83
2023/03/11 01:21:12;;;;;;;1.90;1.15;;;;;;;9.77;53.18;97656.34;7712140;32;39370;-86
2023/03/11 01:25:28;;;;;;;1.10;1.10;;;;;;;9.95;52.39;97657.97;7712780;32;39854;-84
2023/03/11 01:29:45;;;;;;;1.67;1.30;;;;;;;9.95;52.40;97641.62;7712138;32;38715;-83
2023/03/11 01:34:01;;;;;;;4.03;1.40;;;;;;;10.08;51.70;97642.56;7712776;32;37800;-84
2023/03/11 01:38:17;;;;;;;1.40;1.30;;;;;;;9.84;52.23;97647.69;7712959;32;39364;-83
2023/03/11 01:42:34;;;;;;;1.30;1.25;;;;;;;10.32;50.60;97633.13;7712990;32;40918;-84
2023/03/11 01:46:53;;;;;;;1.20;1.20;;;;;;;10.12;51.03;97631.84;7712209;32;38772;-86
2023/03/11 01:51:09;;;;;;;1.55;1.20;;;;;;;9.75;51.10;97621.28;7712484;32;37623;-84
2023/03/11 01:55:26;;;;;;;3.72;1.42;;;;;;;9.66;51.57;97627.81;7716257;32;40137;-85
2023/03/11 01:59:49;;;;;;;4.05;1.30;;;;;;;10.36;50.66;97655.09;7739452;32;39564;-84
2023/03/11 02:04:05;;;;;;;1.50;1.40;;;;;;;9.94;50.78;97664.50;7738250;32;38660;-83
2023/03/11 02:08:22;;;;;;;1.42;1.30;;;;;;;9.16;54.60;97667.88;7739537;32;37158;-85
2023/03/11 02:12:39;;;;;;;1.50;1.20;;;;;;;9.73;53.99;97667.06;7739388;32;40223;-83
2023/03/11 02:16:56;;;;;;;1.85;1.33;;;;;;;9.54;53.47;97675.50;7726873;32;40921;-85
2023/03/11 02:21:19;;;;;;;1.40;1.30;;;;;;;9.31;52.39;97693.03;7710977;32;37743;-84
2023/03/11 02:25:51;;;;;;;1.75;1.42;;;;;;;9.55;51.82;97688.00;7711292;32;36805;-84
2023/03/11 02:30:10;;;;;;;2.37;1.30;;;;;;;9.56;50.79;97691.50;7712615;32;39579;-84
2023/03/11 02:34:29;;;;;;;3.22;1.50;;;;;;;9.50;50.28;97685.41;7711327;32;40898;-85
2023/03/11 02:38:45;;;;;;;2.15;1.45;;;;;;;9.27;47.78;97692.06;7712303;32;37880;-83
2023/03/11 02:43:06;;;;;;;1.37;1.27;;;;;;;9.47;46.85;97696.09;7712317;32;38523;-83
2023/03/11 02:47:24;;;;;;;2.72;1.40;;;;;;;9.43;45.96;97685.06;7710781;32;39209;-84
2023/03/11 02:51:40;;;;;;;2.33;1.33;;;;;;;8.96;44.41;97699.09;7709676;32;41111;-85
2023/03/11 02:55:56;;;;;;;1.52;1.37;;;;;;;9.44;44.99;97697.56;7711822;32;37784;-84
2023/03/11 03:00:15;;;;;;;2.17;1.33;;;;;;;9.74;43.89;97695.88;7712031;32;37210;-84
2023/03/11 03:04:31;;;;;;;1.30;1.30;;;;;;;9.34;44.06;97695.91;7712165;32;40109;-85
2023/03/11 03:08:48;;;;;;;1.42;1.10;;;;;;;9.39;43.65;97682.16;7712040;32;40965;-84
2023/03/11 03:13:04;;;;;;;2.60;1.40;;;;;;;9.44;44.94;97681.22;7711961;32;37783;-85
2023/03/11 03:17:20;;;;;;;4.03;1.55;;;;;;;9.71;44.30;97685.63;7711344;32;37111;-85
2023/03/11 03:21:36;;;;;;;1.95;1.40;;;;;;;9.33;44.65;97691.59;7711846;32;39416;-83
2023/03/11 03:25:53;;;;;;;1.27;1.20;;;;;;;8.91;45.40;97707.37;7711721;32;39714;-83
2023/03/11 03:30:10;;;;;;;2.65;1.65;;;;;;;8.95;46.31;97724.69;7712047;32;35856;-85
2023/03/11 03:34:26;;;;;;;2.97;1.50;;;;;;;8.47;47.16;97725.34;7711205;32;37076;-85
2023/03/11 03:38:42;;;;;;;3.55;1.50;;;;;;;8.57;47.30;97727.81;7711548;32;39369;-84
2023/03/11 03:42:59;;;;;;;3.95;1.67;;;;;;;8.88;46.68;97735.19;7711613;32;39681;-84
2023/03/11 03:47:15;;;;;;;1.67;1.40;;;;;;;8.80;47.82;97733.25;7710782;32;39020;-84
2023/03/11 03:51:32;;;;;;;3.25;1.30;;;;;;;9.23;47.23;97729.13;7711644;32;37297;-85
2023/03/11 03:55:49;;;;;;;2.92;1.50;;;;;;;9.13;46.25;97719.34;7711320;32;39413;-83
2023/03/11 04:00:09;;;;;;;1.60;1.50;;;;;;;8.82;45.38;97714.69;7710831;32;39990;-85
2023/03/11 04:04:25;;;;;;;1.45;1.35;;;;;;;8.28;43.24;97717.34;7711032;32;37792;-83
2023/03/11 04:08:42;;;;;;;2.78;1.27;;;;;;;8.43;41.75;97732.47;7710795;32;37106;-84
2023/03/11 04:12:58;;;;;;;1.87;1.50;;;;;;;8.36;41.16;97721.22;7710244;32;39253;-84
2023/03/11 04:17:16;;;;;;;8.88;1.75;;;;;;;8.31;40.97;97716.72;7711080;32;39887;-83
2023/03/11 04:21:32;;;;;;;6.12;1.70;;;;;;;8.05;40.49;97751.78;7710939;32;37792;-84
2023/03/11 04:25:49;;;;;;;15.30;1.95;;;;;;;7.73;40.54;97745.41;7711012;32;37848;-83
2023/03/11 04:30:07;;;;;;;6.45;1.70;;;;;;;7.52;41.40;97755.88;7711001;32;39827;-83
2023/03/11 04:34:23;;;;;;;5.55;1.75;;;;;;;8.13;41.75;97737.50;7710922;32;39578;-84
2023/03/11 04:38:39;;;;;;;4.37;1.50;;;;;;;7.45;41.35;97750.84;7710497;32;37770;-83
2023/03/11 04:42:56;;;;;;;4.62;2.03;;;;;;;7.25;42.38;97738.47;7710784;32;37298;-83
2023/03/11 04:47:12;;;;;;;1.77;1.67;;;;;;;7.25;43.13;97757.44;7710594;32;39409;-85
2023/03/11 04:51:28;;;;;;;3.53;2.03;;;;;;;7.09;42.11;97781.31;7710631;32;40733;-83
2023/03/11 04:55:46;;;;;;;3.33;1.70;;;;;;;6.90;41.58;97765.13;7710508;32;38598;-84
2023/03/11 05:00:14;;;;;;;1.98;1.87;;;;;;;6.99;41.91;97773.34;7710372;32;39338;-84
2023/03/11 05:04:30;;;;;;;1.67;1.58;;;;;;;6.62;41.53;97780.44;7710274;32;40173;-83
2023/03/11 05:08:47;;;;;;;2.00;1.90;;;;;;;6.62;42.07;97776.94;7708926;32;40024;-83
2023/03/11 08:09:07;;;;;;;2.87;2.67;;;;;;;4.11;49.72;97960.00;7831372;32;335562;-86
2023/03/11 08:17:55;;;;;;;2.67;2.37;;;;;;;5.99;43.67;97923.09;8126429;26;20116;-84
2023/03/11 08:22:11;;;;;;;5.12;2.22;;;;;;;5.58;43.06;97947.81;7731173;32;36724;-82
2023/03/11 08:26:28;;;;;;;6.43;2.10;;;;;;;5.68;42.81;97954.22;7731211;32;39102;-82
2023/03/11 08:30:44;;;;;;;8.90;2.67;;;;;;;5.63;44.01;97969.38;7731109;32;40870;-83
2023/03/11 08:35:00;;;;;;;5.62;2.50;;;;;;;5.54;43.27;98027.06;7731016;32;38777;-83
2023/03/11 08:39:17;;;;;;;3.87;2.20;;;;;;;5.78;42.14;98046.88;7731020;32;37659;-84
2023/03/11 08:43:34;;;;;;;2.40;2.20;;;;;;;5.33;42.56;98029.06;7731036;32;38929;-83
2023/03/11 08:47:50;;;;;;;5.28;2.30;;;;;;;5.46;41.81;98037.34;7730732;32;39889;-85
2023/03/11 08:52:06;;;;;;;7.15;2.47;;;;;;;5.61;44.21;98036.44;7730744;32;38677;-84
2023/03/11 08:56:22;;;;;;;2.28;2.08;;;;;;;5.63;42.46;98038.88;7730767;32;36859;-84
2023/03/11 09:00:39;;;;;;;5.37;2.37;;;;;;;5.81;42.55;98050.91;7730788;32;39147;-83
2023/03/11 09:04:55;;;;;;;4.03;2.50;;;;;;;5.57;43.22;98073.25;7730631;32;40989;-83
2023/03/11 09:09:11;;;;;;;2.37;2.17;;;;;;;5.60;43.33;98088.91;7730294;32;37648;-83
2023/03/11 09:13:28;;;;;;;6.87;2.55;;;;;;;5.21;44.36;98089.69;7730468;32;36862;-84
2023/03/11 09:17:44;;;;;;;2.67;2.22;;;;;;;5.94;43.77;98077.28;7723881;32;39202;-85
2023/03/11 09:22:01;;;;;;;2.22;2.12;;;;;;;6.09;43.17;98084.50;7712448;32;40824;-84
2023/03/11 09:26:17;;;;;;;3.42;2.62;;;;;;;5.74;43.13;98112.59;7712291;32;37557;-84
2023/03/11 09:30:34;;;;;;;4.22;2.10;;;;;;;5.75;42.79;98133.16;7712379;32;37110;-83
2023/03/11 09:34:51;;;;;;;2.60;2.40;;;;;;;5.62;43.25;98134.56;7712277;32;39826;-84
2023/03/11 09:39:09;;;;;;;2.30;2.20;;;;;;;6.33;43.18;98144.13;7712403;32;39535;-83
2023/03/11 09:43:28;;;;;;;2.60;2.40;;;;;;;6.46;42.64;98120.97;7712378;32;38587;-82
2023/03/11 09:48:09;;;;;;;2.42;2.20;;;;;;;6.42;42.23;98136.19;7712236;32;36858;-83
2023/03/11 09:52:35;;;;;;;14.40;2.30;;;;;;;6.25;43.02;98119.56;7700664;32;38955;-84
2023/03/11 09:56:51;;;;;;;3.45;2.20;;;;;;;6.57;42.44;98124.38;7712161;32;39899;-84
2023/03/11 10:01:27;;;;;;;3.03;2.40;;;;;;;6.75;42.05;98109.31;7712094;32;37600;-83
2023/03/11 10:05:45;;;;;;;2.37;2.10;;;;;;;6.90;43.19;98100.22;7698586;32;37633;-83
2023/03/11 10:10:01;;;;;;;2.20;2.05;;;;;;;7.55;41.61;98113.19;7698482;32;39133;-84
2023/03/11 10:14:26;;;;;;;3.25;2.00;;;;;;;7.61;40.95;98105.81;7711981;32;39016;-82
2023/03/11 10:18:43;;;;;;;;;;;;;;;7.11;42.14;98120.53;7712243;32;37724;-83
2023/03/11 10:23:02;;;;;;;2.80;2.40;;;;;;;7.23;41.76;98113.91;7712219;32;36739;-82
2023/03/11 10:27:45;;;;;;;2.90;2.45;;;;;;;6.75;42.48;98134.50;7711937;32;39194;-83
2023/03/11 10:32:24;;;;;;;7.35;3.08;;;;;;;6.60;43.64;98129.22;7710876;32;39878;-82
2023/03/11 10:37:19;;;;;;;3.37;2.25;;;;;;;7.12;44.65;98149.28;7711893;32;37864;-82
2023/03/11 10:41:43;;;;;;;4.10;2.00;;;;;;;6.88;43.59;98153.84;7711906;32;37683;-82
2023/03/11 10:46:01;;;;;;;4.28;1.83;;;;;;;7.22;42.54;98158.38;7698564;32;39926;-82
2023/03/11 10:50:19;;;;;;;2.50;2.28;;;;;;;6.97;41.24;98157.56;7711743;32;40870;-84
2023/03/11 10:54:42;;;;;;;2.62;2.42;;;;;;;6.67;42.96;98164.09;7711616;32;37576;-83
2023/03/11 10:58:59;;;;;;;;;;;;;;;6.58;42.72;98161.22;7711898;32;37613;-83
2023/03/11 11:03:22;;;;;;;3.10;2.30;;;;;;;6.52;42.41;98170.47;7711692;32;39231;-84
2023/03/11 11:07:39;;;;;;;2.22;2.08;;;;;;;5.95;43.79;98194.41;7698346;32;40927;-84
2023/03/11 11:12:06;;;;;;;3.50;2.03;;;;;;;6.21;43.12;98189.69;7711270;32;37795;-83
2023/03/11 11:16:22;;;;;;;2.45;2.25;;;;;;;5.88;43.09;98208.28;7711342;32;37647;-82
2023/03/11 11:20:39;;;;;;;3.20;2.87;;;;;;;5.94;44.55;98184.69;7711112;32;39258;-85
2023/03/11 11:24:55;;;;;;;9.45;2.60;;;;;;;5.82;43.98;98218.28;7710871;32;40671;-84
2023/03/11 11:29:13;;;;;;;3.05;2.50;;;;;;;6.63;43.20;98195.56;7711208;32;37769;-84
2023/03/11 11:33:32;;;;;;;3.25;2.37;;;;;;;6.83;43.83;98192.66;7711206;32;36785;-83
2023/03/11 11:37:52;;;;;;;2.75;2.50;;;;;;;6.95;42.43;98184.12;7711287;32;39279;-85
2023/03/11 11:42:12;;;;;;;2.55;2.35;;;;;;;6.43;43.08;98180.28;7697260;32;41037;-84
2023/03/11 11:46:42;;;;;;;2.55;2.33;;;;;;;6.22;42.98;98195.91;7710933;32;38616;-84
2023/03/11 11:51:07;;;;;;;2.55;2.35;;;;;;;6.14;43.61;98205.41;7698123;32;36948;-85
2023/03/11 11:55:26;;;;;;;6.05;2.55;;;;;;;6.17;43.76;98192.16;7697817;32;39815;-84
2023/03/11 11:59:44;;;;;;;14.73;6.40;;;;;;;5.42;43.84;98239.03;7710816;32;40813;-83
2023/03/11 12:04:18;;;;;;;5.43;2.60;;;;;;;5.96;43.08;98204.97;7696840;32;37922;-85
2023/03/11 12:08:59;;;;;;;5.12;2.42;;;;;;;6.05;42.06;98198.97;7710447;32;36868;-84
2023/03/11 12:13:43;;;;;;;3.17;2.62;;;;;;;5.98;42.17;98221.72;7710450;32;38899;-84
2023/03/11 12:18:03;;;;;;;4.30;2.65;;;;;;;5.96;42.18;98210.37;7710058;32;41489;-84
2023/03/11 12:22:38;;;;;;;3.15;2.40;;;;;;;6.09;41.79;98224.38;7710238;32;38551;-83
2023/03/11 12:26:57;;;;;;;5.03;2.20;;;;;;;5.97;42.03;98209.31;7709912;32;36854;-84
2023/03/11 12:31:15;;;;;;;5.68;2.67;;;;;;;5.81;42.09;98213.97;7696632;32;40657;-84
2023/03/11 12:35:33;;;;;;;3.00;2.67;;;;;;;5.98;41.00;98219.03;7696250;32;39597;-85
2023/03/11 12:39:49;;;;;;;6.15;3.08;;;;;;;6.19;41.12;98240.53;7696283;32;37925;-85
2023/03/11 12:44:27;;;;;;;5.35;2.30;;;;;;;6.38;41.03;98237.97;7709667;32;37828;-84
2023/03/11 12:48:54;;;;;;;4.45;2.47;;;;;;;6.34;40.75;98237.72;7709589;32;39066;-84
2023/03/11 12:53:16;;;;;;;3.05;2.45;;;;;;;6.71;40.09;98265.34;7696798;32;39827;-84
2023/03/11 12:57:52;;;;;;;3.10;2.47;;;;;;;6.35;39.86;98255.59;7699540;32;37978;-84
2023/03/11 13:02:14;;;;;;;2.85;2.53;;;;;;;6.28;40.51;98268.66;7713229;32;36863;-85
2023/03/11 13:06:50;;;;;;;5.03;2.42;;;;;;;6.29;40.77;98251.31;7713055;32;39988;-84
2023/03/11 13:11:32;;;;;;;4.30;2.50;;;;;;;5.75;41.12;98273.78;7674721;32;40647;-84
2023/03/11 13:15:48;;;;;;;2.78;2.58;;;;;;;6.20;41.43;98269.25;7712699;32;38598;-84
2023/03/11 13:20:28;;;;;;;2.62;2.42;;;;;;;6.20;41.46;98263.81;7712886;32;36850;-85
2023/03/11 13:24:50;;;;;;;3.00;2.28;;;;;;;6.95;40.88;98268.09;7712732;32;39237;-85
2023/03/11 13:29:21;;;;;;;2.60;2.20;;;;;;;8.31;37.52;98280.63;7712836;32;39879;-84
2023/03/11 13:33:46;;;;;;;2.10;1.95;;;;;;;7.93;37.18;98281.41;7712622;32;37832;-85
2023/03/11 13:38:37;;;;;;;3.28;2.42;;;;;;;7.89;36.69;98310.25;7712716;32;37561;-84
2023/03/11 13:42:56;;;;;;;3.58;2.65;;;;;;;6.89;39.64;98335.09;7712733;32;40460;-84
2023/03/11 13:47:18;;;;;;;2.78;2.28;;;;;;;7.73;38.79;98339.47;7712476;32;40057;-84
2023/03/11 13:51:41;;;;;;;2.90;2.60;;;;;;;7.04;38.49;98358.56;7712438;32;37845;-84
2023/03/11 13:55:57;;;;;;;4.00;2.62;;;;;;;7.17;38.29;98361.69;7699118;32;37956;-85
2023/03/11 14:00:16;;;;;;;2.87;2.58;;;;;;;6.45;38.68;98373.03;7712450;32;39143;-84
2023/03/11 14:04:37;;;;;;;3.12;2.55;;;;;;;6.50;38.94;98386.53;7710179;32;39899;-84
2023/03/11 14:08:54;;;;;;;3.20;2.70;;;;;;;6.70;39.10;98388.31;7697565;32;38488;-85
2023/03/11 14:13:18;;;;;;;2.60;2.40;;;;;;;6.52;39.88;98395.19;7712133;32;36899;-83
2023/03/11 14:17:34;;;;;;;4.22;2.60;;;;;;;6.82;38.41;98401.53;7711917;32;39976;-85
2023/03/11 14:21:51;;;;;;;2.53;2.33;;;;;;;6.82;38.45;98407.75;7698095;32;39897;-86
2023/03/11 14:26:14;;;;;;;2.55;2.30;;;;;;;6.75;38.40;98399.94;7711555;32;37961;-83
2023/03/11 14:30:32;;;;;;;3.45;3.00;;;;;;;6.80;37.64;98418.06;7711100;32;37224;-86
2023/03/11 14:34:48;;;;;;;2.92;2.58;;;;;;;6.95;37.92;98425.25;7711766;32;38517;-86
2023/03/11 14:39:05;;;;;;;3.87;2.95;;;;;;;6.96;38.71;98432.31;7711850;32;40850;-85
2023/03/11 14:43:21;;;;;;;3.30;2.87;;;;;;;6.44;39.44;98436.41;7711685;32;38610;-86
2023/03/11 14:47:44;;;;;;;2.83;2.55;;;;;;;6.34;39.81;98435.34;7711761;32;36920;-85
2023/03/11 14:52:10;;;;;;;7.90;2.90;;;;;;;6.19;40.14;98429.97;7711781;32;40157;-84
2023/03/11 14:56:26;;;;;;;4.20;3.00;;;;;;;6.72;39.76;98438.41;7710527;32;41226;-85
2023/03/11 15:01:28;;;;;;;4.43;3.12;;;;;;;6.87;39.57;98444.84;7697979;32;37049;-85
2023/03/11 15:05:56;;;;;;;5.18;3.28;;;;;;;6.76;39.06;98466.56;7699052;32;36865;-84
2023/03/11 15:10:14;;;;;;;6.22;2.80;;;;;;;6.48;39.58;98472.66;7697961;32;39188;-85
2023/03/11 15:14:35;;;;;;;4.15;2.90;;;;;;;6.57;40.36;98489.94;7710572;32;38557;-85
2023/03/11 15:18:53;;;;;;;2.50;2.30;;;;;;;6.64;38.72;98493.16;7682715;32;37759;-84
2023/03/11 15:23:20;;;;;;;3.80;2.60;;;;;;;6.29;38.69;98499.50;7684619;32;36682;-85
2023/03/11 15:27:37;;;;;;;3.03;2.70;;;;;;;6.46;38.87;98512.72;7683023;32;39315;-85
2023/03/11 15:31:56;;;;;;;2.83;2.50;;;;;;;6.79;38.27;98519.34;7683958;32;40781;-84
2023/03/11 15:36:42;;;;;;;4.37;2.50;;;;;;;6.52;37.31;98514.31;7683717;32;38537;-85
2023/03/11 15:41:01;;;;;;;4.90;2.40;;;;;;;6.51;37.50;98524.34;7683188;32;35157;-84
2023/03/11 15:45:20;;;;;;;4.00;2.90;;;;;;;6.58;36.72;98535.69;7682796;32;39073;-84
2023/03/11 15:49:36;;;;;;;4.75;2.85;;;;;;;6.44;37.94;98548.19;7683322;32;40766;-84
2023/03/11 15:53:53;;;;;;;5.57;2.87;;;;;;;6.74;36.67;98550.00;7684039;32;37767;-85
2023/03/11 15:58:10;;;;;;;9.07;3.17;;;;;;;7.47;37.01;98555.88;7683857;32;36945;-85
2023/03/11 16:02:29;;;;;;;3.08;2.60;;;;;;;7.65;36.90;98563.31;7683828;32;39185;-86
2023/03/11 16:06:46;;;;;;;5.82;2.90;;;;;;;8.62;33.92;98552.69;7683718;32;39918;-84
2023/03/11 16:11:15;;;;;;;3.05;2.60;;;;;;;7.78;34.87;98567.31;7683491;32;38653;-85
2023/03/11 16:15:35;;;;;;;2.55;2.35;;;;;;;7.13;35.69;98581.78;7686537;32;38139;-85
2023/03/11 16:19:51;;;;;;;3.35;2.50;;;;;;;6.57;36.50;98593.66;7709228;32;39979;-83
2023/03/11 16:24:12;;;;;;;3.58;2.67;;;;;;;6.46;37.15;98604.78;7709979;32;40077;-84
2023/03/11 16:28:28;;;;;;;3.62;2.97;;;;;;;6.61;37.40;98615.59;7710989;32;37892;-83
2023/03/11 16:32:45;;;;;;;3.58;2.78;;;;;;;6.62;37.89;98617.19;7713413;32;36931;-83
2023/03/11 16:37:01;;;;;;;3.35;2.65;;;;;;;6.42;38.13;98633.50;7713285;32;39290;-83
2023/03/11 16:41:17;;;;;;;7.50;2.90;;;;;;;6.56;38.08;98640.75;7713258;32;39737;-82
2023/03/11 16:45:34;;;;;;;4.10;2.95;;;;;;;6.35;38.53;98639.19;7713115;32;37722;-83
2023/03/11 16:49:52;;;;;;;3.65;2.70;;;;;;;6.54;38.63;98642.94;7713114;32;37039;-83
2023/03/11 16:54:08;;;;;;;4.35;2.85;;;;;;;6.50;38.31;98649.16;7713116;32;41380;-84
2023/03/11 16:58:24;;;;;;;3.55;2.80;;;;;;;6.41;38.36;98664.34;7713069;32;39921;-84
2023/03/11 17:02:41;;;;;;;3.80;2.90;;;;;;;6.50;38.39;98673.53;7713055;32;37856;-83
2023/03/11 17:06:57;;;;;;;4.95;3.03;;;;;;;6.66;38.46;98687.91;7712984;32;37645;-84
2023/03/11 17:11:17;;;;;;;3.83;3.15;;;;;;;6.29;39.22;98695.19;7712892;32;39039;-83
2023/03/11 17:15:34;;;;;;;4.18;3.00;;;;;;;6.27;39.44;98700.06;7711995;32;39903;-83
2023/03/11 17:19:51;;;;;;;3.72;3.12;;;;;;;6.22;39.12;98713.59;7691315;32;37889;-84
2023/03/11 17:24:08;;;;;;;3.35;3.05;;;;;;;6.23;39.13;98728.78;7712383;32;37663;-83
2023/03/11 17:28:24;;;;;;;3.10;2.90;;;;;;;5.98;39.11;98726.81;7698911;32;39224;-84
2023/03/11 17:32:41;;;;;;;4.80;3.10;;;;;;;5.76;39.82;98738.66;7711892;32;40572;-85
2023/03/11 17:36:57;;;;;;;4.97;3.25;;;;;;;5.89;39.31;98745.44;7712337;32;37560;-83
2023/03/11 17:41:15;;;;;;;5.95;3.40;;;;;;;5.65;39.58;98762.12;7711568;32;37663;-84
2023/03/11 17:45:32;;;;;;;4.20;3.37;;;;;;;5.84;39.93;98769.78;7711767;32;40030;-84
2023/03/11 17:49:48;;;;;;;5.07;4.03;;;;;;;5.91;40.34;98770.31;7711915;32;39964;-83
2023/03/11 17:54:06;;;;;;;6.07;3.90;;;;;;;5.72;39.97;98782.72;7711102;32;38589;-84
2023/03/11 17:58:22;;;;;;;7.15;4.32;;;;;;;5.51;40.02;98788.03;7709125;32;37002;-83
2023/03/11 18:02:38;;;;;;;6.60;4.07;;;;;;;5.22;40.89;98790.31;7711748;32;39249;-82
2023/03/11 18:06:55;;;;;;;5.15;3.80;;;;;;;5.54;40.68;98797.53;7712114;32;39913;-83
2023/03/11 18:11:14;;;;;;;10.32;5.37;;;;;;;5.30;40.88;98808.72;7698386;32;38659;-83
2023/03/11 18:15:34;;;;;;;6.00;3.78;;;;;;;5.29;40.73;98817.09;7711799;32;37112;-83
2023/03/11 18:19:51;;;;;;;5.07;3.45;;;;;;;5.26;40.99;98826.56;7711495;32;39210;-84
2023/03/11 18:24:07;;;;;;;4.90;3.75;;;;;;;5.19;41.19;98829.47;7711557;32;41033;-84
2023/03/11 18:28:24;;;;;;;4.50;3.60;;;;;;;5.04;41.81;98848.28;7711291;32;37829;-84
2023/03/11 18:32:40;;;;;;;5.82;3.65;;;;;;;5.20;41.62;98852.72;7685144;32;36929;-85
2023/03/11 18:36:56;;;;;;;7.55;4.45;;;;;;;4.88;42.24;98845.44;7684628;32;40078;-84
2023/03/11 18:41:13;;;;;;;4.50;3.60;;;;;;;4.84;42.47;98844.31;7685208;32;39877;-83
2023/03/11 18:45:30;;;;;;;6.55;3.55;;;;;;;5.13;42.03;98852.13;7697388;32;37896;-85
2023/03/11 18:49:46;;;;;;;3.87;3.47;;;;;;;4.93;43.30;98858.16;7710827;32;37701;-86
2023/03/11 18:54:05;;;;;;;4.28;3.58;;;;;;;5.05;42.74;98861.53;7711701;32;38918;-85
2023/03/11 18:58:22;;;;;;;5.20;3.60;;;;;;;4.85;42.66;98872.97;7711060;32;40750;-85
2023/03/11 19:02:38;;;;;;;4.55;3.50;;;;;;;4.63;43.20;98880.31;7710421;32;38738;-85
2023/03/11 19:06:54;;;;;;;4.62;3.47;;;;;;;4.54;43.35;98895.34;7711177;32;37141;-83
2023/03/11 19:11:13;;;;;;;5.15;3.67;;;;;;;4.75;43.19;98896.37;7711519;32;39261;-84
2023/03/11 19:15:29;;;;;;;4.80;4.05;;;;;;;4.27;43.99;98910.44;7711013;32;40942;-85
2023/03/11 19:19:46;;;;;;;7.12;3.58;;;;;;;4.60;44.07;98908.63;7710872;32;37851;-84
2023/03/11 19:24:02;;;;;;;6.03;3.67;;;;;;;4.93;43.58;98904.09;7711031;32;37027;-85
2023/03/11 19:28:20;;;;;;;4.90;3.62;;;;;;;4.86;43.93;98906.19;7710912;32;39338;-84
2023/03/11 19:32:36;;;;;;;4.87;3.50;;;;;;;4.84;43.73;98913.72;7711213;32;40894;-84
2023/03/11 19:36:52;;;;;;;6.85;4.05;;;;;;;4.41;44.23;98924.34;7710870;32;37914;-83
2023/03/11 19:41:13;;;;;;;4.82;3.78;;;;;;;4.36;44.59;98929.69;7711103;32;37109;-84
2023/03/11 19:45:29;;;;;;;4.22;3.47;;;;;;;4.39;44.51;98936.47;7711051;32;38978;-85
2023/03/11 19:49:46;;;;;;;8.20;5.40;;;;;;;4.27;44.11;98959.00;7710737;32;39840;-85
2023/03/11 19:54:02;;;;;;;7.12;4.70;;;;;;;4.11;44.91;98970.66;7710638;32;38727;-86
2023/03/11 19:58:19;;;;;;;7.03;4.50;;;;;;;4.35;44.55;98976.66;7710606;32;37003;-87
2023/03/11 20:02:36;;;;;;;6.93;4.87;;;;;;;4.40;44.08;98979.41;7710031;32;39298;-84
2023/03/11 20:06:52;;;;;;;8.60;5.18;;;;;;;4.20;44.83;98989.94;7694276;32;40909;-84
2023/03/11 20:11:08;;;;;;;9.98;5.25;;;;;;;4.14;45.27;99002.56;7703041;32;37509;-84
2023/03/11 20:15:26;;;;;;;7.93;4.60;;;;;;;4.34;44.90;99002.00;7688677;32;36969;-85
2023/03/11 20:19:42;;;;;;;7.43;4.97;;;;;;;4.11;45.32;99003.84;7682634;32;40306;-84
2023/03/11 20:23:59;;;;;;;6.55;4.35;;;;;;;3.88;46.20;99004.03;7712867;32;40704;-85
2023/03/11 20:28:15;;;;;;;5.35;4.28;;;;;;;3.56;47.42;99012.72;7722126;32;38803;-85
2023/03/11 20:32:31;;;;;;;7.65;4.60;;;;;;;3.56;47.05;99028.91;7710797;32;38033;-85
2023/03/11 20:36:49;;;;;;;7.00;4.85;;;;;;;3.52;47.23;99023.19;7697648;32;38780;-84
2023/03/11 20:41:10;;;;;;;5.70;4.00;;;;;;;3.81;46.45;99024.97;7708444;32;39948;-84
2023/03/11 20:45:27;;;;;;;6.47;4.43;;;;;;;3.65;47.21;99038.22;7735643;32;37689;-84
2023/03/11 20:49:44;;;;;;;6.70;4.85;;;;;;;3.67;47.15;99033.37;7686888;32;37667;-85
2023/03/11 20:54:00;;;;;;;5.78;4.47;;;;;;;3.56;47.53;99039.69;7680926;32;40230;-85
2023/03/11 20:58:17;;;;;;;7.28;4.45;;;;;;;3.67;47.29;99046.06;7682065;32;39927;-86
2023/03/11 21:02:33;;;;;;;9.23;4.90;;;;;;;3.38;47.91;99044.25;7685132;32;37895;-84
2023/03/11 21:06:54;;;;;;;6.53;4.18;;;;;;;3.07;49.13;99052.81;7698329;32;37056;-86
2023/03/11 21:11:10;;;;;;;6.65;5.10;;;;;;;3.22;48.82;99061.19;7693321;32;40067;-84
2023/03/11 21:15:27;;;;;;;9.73;5.68;;;;;;;3.08;49.58;99078.69;7709293;32;39923;-83
2023/03/11 21:19:44;;;;;;;6.57;5.00;;;;;;;3.44;48.78;99080.16;7710719;32;37830;-85
2023/03/11 21:24:00;;;;;;;7.10;4.72;;;;;;;3.34;49.13;99080.00;7711210;32;37007;-85
2023/03/11 21:28:16;;;;;;;9.07;5.45;;;;;;;3.87;47.57;99078.75;7711069;32;39243;-84
2023/03/11 21:32:33;;;;;;;9.95;4.97;;;;;;;3.47;48.13;99084.28;7711662;32;39886;-84
2023/03/11 21:36:49;;;;;;;7.32;5.40;;;;;;;3.47;48.39;99079.69;7711514;32;37586;-84
2023/03/11 21:41:11;;;;;;;6.62;4.93;;;;;;;3.31;49.09;99065.13;7711633;32;37460;-84
2023/03/11 21:45:28;;;;;;;6.78;4.95;;;;;;;3.29;49.13;99067.22;7711767;32;39286;-85
2023/03/11 21:49:44;;;;;;;8.25;4.82;;;;;;;3.43;48.97;99056.97;7710887;32;41587;-85
2023/03/11 21:54:04;;;;;;;7.15;4.87;;;;;;;2.97;50.37;99059.66;7708798;32;38530;-84
2023/03/11 21:58:21;;;;;;;7.15;4.53;;;;;;;2.80;50.65;99083.00;7709900;32;37018;-84
2023/03/11 22:02:38;;;;;;;6.05;4.75;;;;;;;2.82;50.30;99080.88;7711364;32;39277;-82
2023/03/11 22:06:54;;;;;;;7.70;4.70;;;;;;;2.72;50.87;99088.75;7711218;32;39942;-83
2023/03/11 22:11:17;;;;;;;5.50;4.32;;;;;;;2.97;50.20;99096.53;7710687;32;37698;-83
2023/03/11 22:15:35;;;;;;;8.77;4.82;;;;;;;2.82;50.23;99100.53;7711068;32;37906;-83
2023/03/11 22:19:51;;;;;;;5.82;4.57;;;;;;;2.97;49.90;99105.44;7710672;32;38910;-83
2023/03/11 22:24:09;;;;;;;7.93;4.85;;;;;;;2.71;51.14;99109.47;7710087;32;39893;-85
2023/03/11 22:28:26;;;;;;;6.12;4.40;;;;;;;2.97;50.08;99099.22;7709272;32;38300;-84
2023/03/11 22:32:42;;;;;;;6.55;5.07;;;;;;;3.01;49.76;99103.88;7710679;32;37269;-85
2023/03/11 22:36:59;;;;;;;7.05;4.62;;;;;;;2.72;50.62;99111.09;7710893;32;37723;-83
2023/03/11 22:41:18;;;;;;;8.00;5.25;;;;;;;2.89;49.85;99110.38;7710701;32;40790;-86
2023/03/11 22:45:34;;;;;;;9.68;5.30;;;;;;;2.99;49.56;99135.62;7693819;32;37880;-86
2023/03/11 22:49:50;;;;;;;7.00;4.85;;;;;;;3.18;54.69;99140.84;7710553;32;37737;-86
2023/03/11 22:54:07;;;;;;;5.78;4.55;;;;;;;3.19;50.02;99142.47;7710419;32;40077;-85
2023/03/11 22:58:23;;;;;;;6.25;4.70;;;;;;;3.12;49.25;99147.19;7710401;32;39970;-86
2023/03/11 23:02:39;;;;;;;6.82;4.75;;;;;;;3.28;48.83;99145.63;7710738;32;38503;-86
2023/03/11 23:06:56;;;;;;;8.30;4.37;;;;;;;2.99;49.13;99149.09;7710233;32;37612;-85
2023/03/11 23:11:15;;;;;;;6.93;4.32;;;;;;;2.95;49.19;99158.72;7710193;32;39330;-86
2023/03/11 23:15:31;;;;;;;5.80;4.20;;;;;;;3.14;48.28;99172.84;7707200;32;40657;-86
2023/03/11 23:19:47;;;;;;;7.18;4.60;;;;;;;2.56;49.85;99171.84;7710424;32;37446;-83
2023/03/11 23:24:05;;;;;;;6.43;4.57;;;;;;;3.02;48.64;99185.50;7710711;32;36952;-85
2023/03/11 23:28:21;;;;;;;6.10;4.35;;;;;;;2.90;48.62;99193.59;7697000;32;38979;-86
2023/03/11 23:32:38;;;;;;;7.57;4.55;;;;;;;2.96;48.32;99213.38;7709088;32;39642;-85
2023/03/11 23:36:54;;;;;;;6.72;4.12;;;;;;;2.81;48.89;99216.53;7709438;32;38633;-86